createdAt,value
2018-12-29T00:01:12.869Z,102301.41
2018-12-29T00:06:15.060Z,102300.96
2018-12-29T00:11:17.777Z,102301.30
2018-12-29T00:16:20.187Z,102310.41
2018-12-29T00:21:22.672Z,102306.94
2018-12-29T00:26:24.878Z,102308.72
2018-12-29T00:31:27.091Z,102308.23
2018-12-29T00:36:29.303Z,102306.08
2018-12-29T00:41:31.841Z,102312.55
2018-12-29T00:46:34.495Z,102308.67
2018-12-29T00:51:36.685Z,102313.48
2018-12-29T00:56:38.838Z,102315.20
2018-12-29T01:01:40.999Z,102312.17
2018-12-29T01:06:43.149Z,102312.94
2018-12-29T01:11:45.324Z,102312.08
2018-12-29T01:16:47.589Z,102321.58
2018-12-29T01:21:50.207Z,102324.25
2018-12-29T01:26:52.630Z,102321.58
2018-12-29T01:31:54.853Z,102319.43
2018-12-29T01:36:57.679Z,102318.16
2018-12-29T01:41:59.896Z,102320.37
2018-12-29T01:47:02.638Z,102317.34
2018-12-29T01:52:05.513Z,102307.79
2018-12-29T01:57:08.257Z,102308.64
2018-12-29T02:02:11.139Z,102311.67
2018-12-29T02:07:14.019Z,102309.60
2018-12-29T02:12:16.478Z,102304.43
2018-12-29T02:17:19.172Z,102307.81
2018-12-29T02:22:21.434Z,102307.43
2018-12-29T02:27:23.823Z,102300.47
2018-12-29T02:32:26.242Z,102296.17
2018-12-29T02:37:28.451Z,102294.52
2018-12-29T02:42:30.657Z,102288.41
2018-12-29T02:47:33.551Z,102288.91
2018-12-29T02:52:37.206Z,102290.17
2018-12-29T02:57:39.637Z,102288.88
2018-12-29T03:02:41.853Z,102286.31
2018-12-29T03:07:44.061Z,102280.38
2018-12-29T03:12:46.551Z,102280.31
2018-12-29T03:17:48.750Z,102276.43
2018-12-29T03:22:51.814Z,102277.28
2018-12-29T03:27:54.253Z,102281.33
2018-12-29T03:32:56.424Z,102273.58
2018-12-29T03:37:59.329Z,102271.09
2018-12-29T03:43:02.015Z,102269.74
2018-12-29T03:48:04.205Z,102271.01
2018-12-29T03:53:06.573Z,102263.66
2018-12-29T03:58:09.220Z,102272.17
2018-12-29T04:03:11.841Z,102266.91
2018-12-29T04:08:14.282Z,102259.15
2018-12-29T04:13:16.998Z,102260.58
2018-12-29T04:18:19.428Z,102265.34
2018-12-29T04:23:22.352Z,102268.09
2018-12-29T04:28:24.656Z,102267.21
2018-12-29T04:33:27.087Z,102275.41
2018-12-29T04:38:29.747Z,102272.33
2018-12-29T04:43:32.204Z,102271.86
2018-12-29T04:48:34.757Z,102265.84
2018-12-29T04:53:37.684Z,102258.10
2018-12-29T04:58:39.853Z,102272.33
2018-12-29T05:03:42.047Z,102272.41
2018-12-29T05:08:44.949Z,102265.51
2018-12-29T05:13:48.127Z,102276.73
2018-12-29T05:18:50.782Z,102275.00
2018-12-29T05:23:53.590Z,102275.85
2018-12-29T05:28:55.801Z,102269.33
2018-12-29T05:33:58.336Z,102276.27
2018-12-29T05:39:00.794Z,102285.81
2018-12-29T05:44:03.007Z,102282.89
2018-12-29T05:49:05.188Z,102282.95
2018-12-29T05:54:07.592Z,102278.23
2018-12-29T05:59:10.127Z,102286.12
2018-12-29T06:04:12.410Z,102289.19
2018-12-29T06:09:14.591Z,102302.94
2018-12-29T06:14:17.621Z,102296.45
2018-12-29T06:19:20.777Z,102296.03
2018-12-29T06:24:22.964Z,102310.31
2018-12-29T06:29:25.656Z,102310.70
2018-12-29T06:34:28.623Z,102317.58
2018-12-29T06:39:31.068Z,102313.75
2018-12-29T06:44:33.953Z,102317.66
2018-12-29T06:49:36.267Z,102320.16
2018-12-29T06:54:38.439Z,102321.04
2018-12-29T06:59:40.603Z,102314.58
2018-12-29T07:04:43.515Z,102307.39
2018-12-29T07:09:46.188Z,102301.72
2018-12-29T07:14:48.900Z,102294.09
2018-12-29T07:19:51.781Z,102291.12
2018-12-29T07:24:54.630Z,102298.88
2018-12-29T07:29:57.310Z,102299.67
2018-12-29T07:34:59.995Z,102298.38
2018-12-29T07:40:02.405Z,102310.02
2018-12-29T07:45:05.305Z,102310.52
2018-12-29T07:50:07.480Z,102303.70
2018-12-29T07:55:09.854Z,102297.61
2018-12-29T08:00:12.140Z,102301.82
2018-12-29T08:05:14.589Z,102304.17
2018-12-29T08:10:16.857Z,102297.29
2018-12-29T08:15:19.360Z,102293.84
2018-12-29T08:20:21.603Z,102290.07
2018-12-29T08:25:23.758Z,102290.56
2018-12-29T08:30:26.724Z,102299.61
2018-12-29T08:35:29.165Z,102304.37
2018-12-29T08:40:31.351Z,102308.22
2018-12-29T08:45:33.815Z,102307.87
2018-12-29T08:50:36.016Z,102301.45
2018-12-29T08:55:38.768Z,102306.95
2018-12-29T09:00:41.152Z,102300.85
2018-12-29T09:05:44.056Z,102304.73
2018-12-29T09:10:46.183Z,102303.05
2018-12-29T09:15:48.429Z,102305.13
2018-12-29T09:20:50.631Z,102303.34
2018-12-29T09:25:53.016Z,102306.00
2018-12-29T09:30:55.301Z,102303.81
2018-12-29T09:35:57.748Z,102300.83
2018-12-29T09:41:00.122Z,102307.61
2018-12-29T09:46:02.306Z,102311.95
2018-12-29T09:51:05.229Z,102311.48
2018-12-29T09:56:08.204Z,102305.09
2018-12-29T10:01:11.159Z,102284.36
2018-12-29T10:06:13.704Z,102281.78
2018-12-29T10:11:16.012Z,102276.14
2018-12-29T10:16:18.270Z,102280.36
2018-12-29T10:21:20.743Z,102256.65
2018-12-29T10:26:23.028Z,102244.95
2018-12-29T10:31:25.820Z,102243.20
2018-12-29T10:36:29.181Z,102244.39
2018-12-29T10:41:32.306Z,102231.02
2018-12-29T10:46:34.738Z,102234.81
2018-12-29T10:51:37.400Z,102229.97
2018-12-29T10:56:39.829Z,102229.84
2018-12-29T11:01:42.026Z,102220.02
2018-12-29T11:06:44.324Z,102222.52
2018-12-29T11:11:46.858Z,102213.82
2018-12-29T11:16:50.564Z,102209.00
2018-12-29T11:21:53.054Z,102205.89
2018-12-29T11:26:55.771Z,102198.55
2018-12-29T11:31:59.075Z,102190.61
2018-12-29T11:37:01.251Z,102174.53
2018-12-29T11:42:03.800Z,102156.67
2018-12-29T11:47:06.524Z,102145.82
2018-12-29T11:52:09.805Z,102146.11
2018-12-29T11:57:12.394Z,102144.72
2018-12-29T12:02:15.135Z,102125.31
2018-12-29T12:07:17.763Z,102090.41
2018-12-29T12:12:20.869Z,102113.70
2018-12-29T12:17:24.157Z,102123.10
2018-12-29T12:22:26.444Z,102122.06
2018-12-29T12:27:28.815Z,102115.69
2018-12-29T12:32:31.633Z,102111.39
2018-12-29T12:37:34.182Z,102120.04
2018-12-29T12:42:36.647Z,102128.31
2018-12-29T12:47:39.557Z,102126.92
2018-12-29T12:52:41.972Z,102117.45
2018-12-29T12:57:44.219Z,102113.98
2018-12-29T13:02:47.118Z,102113.98
2018-12-29T13:07:49.807Z,102112.27
2018-12-29T13:12:52.475Z,102108.39
2018-12-29T13:17:54.672Z,102103.63
2018-12-29T13:22:56.858Z,102101.73
2018-12-29T13:27:59.899Z,102103.47
2018-12-29T13:33:02.254Z,102095.19
2018-12-29T13:38:04.563Z,102089.64
2018-12-29T13:43:07.292Z,102096.99
2018-12-29T13:48:09.708Z,102098.29
2018-12-29T13:53:12.471Z,102099.55
2018-12-29T13:58:14.625Z,102104.25
2018-12-29T14:03:16.890Z,102104.59
2018-12-29T14:08:19.940Z,102104.13
2018-12-29T14:13:22.625Z,102103.23
2018-12-29T14:18:28.358Z,102096.33
2018-12-29T14:23:29.139Z,102092.85
2018-12-29T14:28:31.330Z,102081.64
2018-12-29T14:33:33.542Z,102077.31
2018-12-29T14:38:36.405Z,102066.45
2018-12-29T14:43:38.609Z,102062.09
2018-12-29T14:48:41.632Z,102050.48
2018-12-29T14:53:43.885Z,102051.26
2018-12-29T14:58:46.843Z,102038.34
2018-12-29T15:03:49.386Z,102022.41
2018-12-29T15:08:51.535Z,102013.34
2018-12-29T15:13:53.715Z,102004.72
2018-12-29T15:18:56.810Z,101990.45
2018-12-29T15:24:00.006Z,101980.05
2018-12-29T15:29:02.543Z,101970.21
2018-12-29T15:34:05.318Z,101955.53
2018-12-29T15:39:08.334Z,101955.45
2018-12-29T15:44:10.791Z,101940.30
2018-12-29T15:49:12.981Z,101936.03
2018-12-29T15:54:15.932Z,101919.65
2018-12-29T15:59:18.134Z,101909.30
2018-12-29T16:04:20.885Z,101898.53
2018-12-29T16:09:24.057Z,101892.39
2018-12-29T16:14:27.197Z,101891.09
2018-12-29T16:19:29.437Z,101891.61
2018-12-29T16:24:32.454Z,101899.31
2018-12-29T16:29:35.649Z,101892.09
2018-12-29T16:34:37.836Z,101889.09
2018-12-29T16:39:40.042Z,101881.73
2018-12-29T16:44:42.383Z,101875.67
2018-12-29T16:49:44.726Z,101873.41
2018-12-29T16:54:47.637Z,101863.83
2018-12-29T16:59:50.303Z,101855.99
2018-12-29T17:04:52.745Z,101834.80
2018-12-29T17:09:54.926Z,101843.05
2018-12-29T17:14:58.441Z,101844.74
2018-12-29T17:20:00.720Z,101833.50
2018-12-29T17:25:03.949Z,101834.80
2018-12-29T17:30:06.458Z,101828.80
2018-12-29T17:35:09.060Z,101820.14
2018-12-29T17:40:11.378Z,101818.41
2018-12-29T17:45:14.247Z,101814.56
2018-12-29T17:50:16.544Z,101795.22
2018-12-29T17:55:19.461Z,101787.97
2018-12-29T18:00:21.916Z,101780.61
2018-12-29T18:05:24.072Z,101772.55
2018-12-29T18:10:26.744Z,101767.83
2018-12-29T18:15:29.018Z,101762.20
2018-12-29T18:20:31.297Z,101748.80
2018-12-29T18:25:33.504Z,101758.77
2018-12-29T18:30:35.850Z,101726.11
2018-12-29T18:35:38.005Z,101715.95
2018-12-29T18:40:41.324Z,101699.41
2018-12-29T18:45:43.555Z,101693.90
2018-12-29T18:50:46.147Z,101678.38
2018-12-29T18:55:49.621Z,101671.09
2018-12-29T19:00:51.918Z,101659.33
2018-12-29T19:05:54.729Z,101654.96
2018-12-29T19:10:57.424Z,101646.59
2018-12-29T19:16:00.458Z,101643.59
2018-12-29T19:21:03.095Z,101631.98
2018-12-29T19:26:06.011Z,101619.38
2018-12-29T19:31:09.371Z,101609.17
2018-12-29T19:36:11.524Z,101614.45
2018-12-29T19:41:13.925Z,101605.82
2018-12-29T19:46:16.355Z,101590.58
2018-12-29T19:51:19.381Z,101571.82
2018-12-29T19:56:22.115Z,101553.30
2018-12-29T20:01:24.276Z,101555.14
2018-12-29T20:06:26.726Z,101545.44
2018-12-29T20:11:29.151Z,101529.69
2018-12-29T20:16:31.676Z,101524.52
2018-12-29T20:21:34.799Z,101515.88
2018-12-29T20:26:38.180Z,101513.30
2018-12-29T20:31:40.452Z,101518.17
2018-12-29T20:36:42.587Z,101501.53
2018-12-29T20:41:45.139Z,101488.36
2018-12-29T20:46:47.365Z,101464.61
2018-12-29T20:51:50.017Z,101463.61
2018-12-29T20:56:52.700Z,101447.02
2018-12-29T21:01:55.160Z,101441.16
2018-12-29T21:06:57.869Z,101433.48
2018-12-29T21:12:00.377Z,101419.47
2018-12-29T21:17:02.715Z,101406.23
2018-12-29T21:22:05.448Z,101397.13
2018-12-29T21:27:08.272Z,101388.50
2018-12-29T21:32:10.421Z,101383.73
2018-12-29T21:37:12.581Z,101365.59
2018-12-29T21:42:15.261Z,101365.06
2018-12-29T21:47:18.126Z,101346.72
2018-12-29T21:52:20.321Z,101339.38
2018-12-29T21:57:22.463Z,101331.23
2018-12-29T22:02:25.206Z,101324.38
2018-12-29T22:07:27.912Z,101325.78
2018-12-29T22:12:30.603Z,101320.17
2018-12-29T22:17:33.241Z,101308.56
2018-12-29T22:22:36.137Z,101305.13
2018-12-29T22:27:38.359Z,101307.27
2018-12-29T22:32:40.662Z,101289.12
2018-12-29T22:37:42.847Z,101295.98
2018-12-29T22:42:45.158Z,101286.09
2018-12-29T22:47:47.976Z,101280.89
2018-12-29T22:52:50.672Z,101279.48
2018-12-29T22:57:53.181Z,101258.73
2018-12-29T23:02:55.356Z,101249.30
2018-12-29T23:07:58.642Z,101244.98
2018-12-29T23:13:01.395Z,101242.31
2018-12-29T23:18:04.624Z,101238.00
2018-12-29T23:23:07.848Z,101230.66
2018-12-29T23:28:10.496Z,101227.95
2018-12-29T23:33:13.199Z,101234.08
2018-12-29T23:38:15.494Z,101222.86
2018-12-29T23:43:17.679Z,101222.02
2018-12-29T23:48:19.884Z,101220.60
2018-12-29T23:53:22.592Z,101217.13
2018-12-29T23:58:25.385Z,101215.25
